createdAt,value
2019-02-10T00:00:21.375Z,1001.74
2019-02-10T00:01:21.375Z,1001.80
2019-02-10T00:02:21.358Z,1001.73
2019-02-10T00:03:21.990Z,1001.72
2019-02-10T00:05:21.343Z,1001.67
2019-02-10T00:06:24.776Z,1001.66
2019-02-10T00:07:21.567Z,1001.65
2019-02-10T00:09:21.358Z,1001.64
2019-02-10T00:10:21.358Z,1001.56
2019-02-10T00:11:21.563Z,1001.51
2019-02-10T00:12:21.343Z,1001.52
2019-02-10T00:13:21.335Z,1001.48
2019-02-10T00:14:21.840Z,1001.47
2019-02-10T00:16:21.608Z,1001.43
2019-02-10T00:17:21.521Z,1001.37
2019-02-10T00:19:21.525Z,1001.39
2019-02-10T00:20:21.316Z,1001.35
2019-02-10T00:21:21.493Z,1001.32
2019-02-10T00:23:21.499Z,1001.30
2019-02-10T00:24:21.288Z,1001.24
2019-02-10T00:25:21.310Z,1001.23
2019-02-10T00:26:21.301Z,1001.22
2019-02-10T00:28:21.901Z,1001.13
2019-02-10T00:29:21.294Z,1001.10
2019-02-10T00:30:21.279Z,1001.05
2019-02-10T00:31:21.577Z,1001.05
2019-02-10T00:32:21.286Z,1001.05
2019-02-10T00:34:21.474Z,1000.99
2019-02-10T00:35:21.278Z,1001.01
2019-02-10T00:36:21.477Z,1000.98
2019-02-10T00:37:21.256Z,1000.95
2019-02-10T00:39:21.467Z,1000.92
2019-02-10T00:41:21.445Z,1000.89
2019-02-10T00:42:21.248Z,1000.86
2019-02-10T00:43:21.259Z,1000.86
2019-02-10T00:44:21.227Z,1000.83
2019-02-10T00:45:21.444Z,1000.86
2019-02-10T00:46:21.251Z,1000.82
2019-02-10T00:47:21.214Z,1000.77
2019-02-10T00:48:21.203Z,1000.73
2019-02-10T00:49:21.443Z,1000.66
2019-02-10T00:51:21.419Z,1000.64
2019-02-10T00:52:21.201Z,1000.59
2019-02-10T00:53:21.201Z,1000.57
2019-02-10T00:54:21.381Z,1000.48
2019-02-10T00:56:21.391Z,1000.38
2019-02-10T00:58:21.176Z,1000.31
2019-02-10T00:59:21.196Z,1000.32
2019-02-10T01:00:21.584Z,1000.28
2019-02-10T01:01:21.194Z,1000.24
2019-02-10T01:03:24.704Z,1000.22
2019-02-10T01:04:21.165Z,1000.17
2019-02-10T01:05:21.364Z,1000.13
2019-02-10T01:06:21.156Z,1000.10
2019-02-10T01:07:21.967Z,1000.10
2019-02-10T01:08:21.559Z,1000.09
2019-02-10T01:09:22.270Z,1000.07
2019-02-10T01:11:21.438Z,1000.02
2019-02-10T01:12:21.136Z,999.99
2019-02-10T01:13:21.129Z,999.94
2019-02-10T01:14:21.318Z,999.94
2019-02-10T01:15:21.315Z,999.96
2019-02-10T01:17:21.125Z,999.99
2019-02-10T01:18:21.525Z,999.93
2019-02-10T01:19:21.119Z,999.93
2019-02-10T01:20:21.090Z,999.85
2019-02-10T01:22:21.322Z,999.79
2019-02-10T01:24:21.091Z,999.67
2019-02-10T01:25:21.099Z,999.64
2019-02-10T01:27:21.085Z,999.60
2019-02-10T01:28:21.596Z,999.58
2019-02-10T01:29:21.081Z,999.60
2019-02-10T01:30:21.107Z,999.55
2019-02-10T01:31:21.068Z,999.53
2019-02-10T01:32:21.069Z,999.53
2019-02-10T01:33:21.086Z,999.56
2019-02-10T01:34:21.051Z,999.53
2019-02-10T01:35:21.076Z,999.47
2019-02-10T01:36:21.473Z,999.44
2019-02-10T01:37:21.259Z,999.37
2019-02-10T01:38:21.033Z,999.33
2019-02-10T01:39:21.235Z,999.35
2019-02-10T01:41:21.049Z,999.28
2019-02-10T01:42:21.036Z,999.24
2019-02-10T01:43:21.262Z,999.23
2019-02-10T01:44:21.234Z,999.18
2019-02-10T01:46:21.025Z,999.14
2019-02-10T01:48:21.196Z,999.04
2019-02-10T01:49:21.015Z,999.01
2019-02-10T01:50:21.013Z,998.98
2019-02-10T01:51:21.004Z,998.90
2019-02-10T01:53:21.209Z,998.78
2019-02-10T01:54:21.301Z,998.72
2019-02-10T01:55:21.186Z,998.60
2019-02-10T01:56:21.182Z,998.64
2019-02-10T01:57:21.194Z,998.65
2019-02-10T01:58:22.110Z,998.57
2019-02-10T02:00:21.687Z,998.55
2019-02-10T02:01:20.979Z,998.49
2019-02-10T02:02:21.381Z,998.47
2019-02-10T02:03:20.963Z,998.44
2019-02-10T02:04:21.180Z,998.38
2019-02-10T02:06:21.349Z,998.32
2019-02-10T02:07:21.178Z,998.34
2019-02-10T02:08:21.129Z,998.27
2019-02-10T02:09:20.973Z,998.21
2019-02-10T02:10:20.944Z,998.18
2019-02-10T02:11:20.938Z,998.16
2019-02-10T02:12:20.937Z,998.12
2019-02-10T02:13:20.920Z,998.10
2019-02-10T02:14:21.248Z,998.07
2019-02-10T02:15:21.118Z,998.07
2019-02-10T02:16:21.537Z,998.00
2019-02-10T02:17:20.909Z,998.01
2019-02-10T02:18:21.129Z,997.92
2019-02-10T02:19:21.115Z,997.91
2019-02-10T02:20:20.900Z,997.85
2019-02-10T02:21:21.118Z,997.82
2019-02-10T02:22:21.907Z,997.83
2019-02-10T02:24:20.904Z,997.86
2019-02-10T02:25:20.897Z,997.84
2019-02-10T02:26:21.183Z,997.79
2019-02-10T02:27:21.594Z,997.78
2019-02-10T02:28:20.879Z,997.74
2019-02-10T02:31:21.067Z,997.67
2019-02-10T02:32:21.183Z,997.68
2019-02-10T02:33:21.053Z,997.68
2019-02-10T02:34:21.055Z,997.64
2019-02-10T02:35:20.847Z,997.61
2019-02-10T02:36:21.245Z,997.53
2019-02-10T02:37:20.866Z,997.50
2019-02-10T02:38:20.839Z,997.42
2019-02-10T02:39:20.850Z,997.46
2019-02-10T02:41:21.035Z,997.33
2019-02-10T02:42:20.824Z,997.32
2019-02-10T02:44:21.019Z,997.29
2019-02-10T02:45:20.819Z,997.28
2019-02-10T02:46:20.805Z,997.19
2019-02-10T02:47:20.803Z,997.19
2019-02-10T02:48:21.041Z,997.18
2019-02-10T02:49:21.099Z,997.19
2019-02-10T02:50:20.818Z,997.13
2019-02-10T02:51:20.810Z,997.12
2019-02-10T02:52:20.797Z,997.11
2019-02-10T02:54:20.998Z,996.91
2019-02-10T02:55:20.985Z,996.87
2019-02-10T02:56:20.783Z,996.84
2019-02-10T02:57:21.057Z,996.72
2019-02-10T02:58:20.766Z,996.70
2019-02-10T02:59:20.775Z,996.70
2019-02-10T03:00:21.166Z,996.59
2019-02-10T03:01:20.767Z,996.47
2019-02-10T03:02:20.746Z,996.43
2019-02-10T03:03:21.141Z,996.40
2019-02-10T03:04:20.753Z,996.40
2019-02-10T03:06:20.732Z,996.34
2019-02-10T03:07:20.767Z,996.43
2019-02-10T03:08:20.730Z,996.33
2019-02-10T03:09:20.921Z,996.29
2019-02-10T03:10:20.732Z,996.30
2019-02-10T03:11:21.119Z,996.22
2019-02-10T03:12:20.923Z,996.21
2019-02-10T03:13:20.719Z,996.20
2019-02-10T03:15:20.917Z,996.15
2019-02-10T03:16:21.410Z,996.19
2019-02-10T03:17:20.894Z,996.11
2019-02-10T03:18:21.015Z,996.10
2019-02-10T03:19:20.685Z,996.08
2019-02-10T03:22:20.681Z,995.94
2019-02-10T03:23:20.675Z,995.94
2019-02-10T03:24:21.189Z,995.88
2019-02-10T03:25:20.660Z,995.90
2019-02-10T03:26:20.670Z,995.88
2019-02-10T03:27:20.931Z,995.79
2019-02-10T03:28:20.859Z,995.78
2019-02-10T03:30:20.646Z,995.78
2019-02-10T03:31:21.754Z,995.67
2019-02-10T03:32:21.049Z,995.66
2019-02-10T03:33:20.644Z,995.65
2019-02-10T03:34:20.819Z,995.58
2019-02-10T03:35:20.611Z,995.64
2019-02-10T03:36:20.822Z,995.56
2019-02-10T03:37:26.859Z,995.57
2019-02-10T03:38:20.631Z,995.45
2019-02-10T03:39:20.800Z,995.45
2019-02-10T03:41:21.010Z,995.42
2019-02-10T03:42:20.605Z,995.39
2019-02-10T03:43:20.583Z,995.34
2019-02-10T03:44:20.604Z,995.36
2019-02-10T03:46:20.591Z,995.29
2019-02-10T03:47:22.167Z,995.15
2019-02-10T03:48:20.569Z,995.16
2019-02-10T03:49:20.750Z,995.09
2019-02-10T03:50:20.979Z,995.14
2019-02-10T03:51:20.867Z,995.05
2019-02-10T03:52:20.740Z,995.05
2019-02-10T03:53:20.952Z,994.99
2019-02-10T03:55:20.521Z,994.97
2019-02-10T03:56:20.532Z,994.93
2019-02-10T03:57:20.540Z,994.87
2019-02-10T03:58:20.544Z,994.85
2019-02-10T03:59:20.726Z,994.82
2019-02-10T04:02:20.829Z,994.74
2019-02-10T04:04:21.088Z,994.61
2019-02-10T04:05:20.905Z,994.56
2019-02-10T04:06:20.892Z,994.59
2019-02-10T04:07:20.674Z,994.51
2019-02-10T04:08:20.479Z,994.42
2019-02-10T04:09:20.486Z,994.36
2019-02-10T04:10:20.777Z,994.35
2019-02-10T04:11:20.681Z,994.34
2019-02-10T04:13:20.659Z,994.23
2019-02-10T04:15:20.457Z,994.15
2019-02-10T04:16:20.452Z,994.15
2019-02-10T04:19:20.435Z,993.96
2019-02-10T04:20:20.867Z,993.94
2019-02-10T04:21:20.429Z,993.92
2019-02-10T04:22:20.429Z,993.89
2019-02-10T04:23:20.634Z,993.87
2019-02-10T04:24:20.629Z,993.80
2019-02-10T04:26:20.399Z,993.71
2019-02-10T04:27:20.601Z,993.69
2019-02-10T04:28:20.390Z,993.62
2019-02-10T04:29:20.425Z,993.60
2019-02-10T04:31:20.899Z,993.56
2019-02-10T04:32:20.597Z,993.59
2019-02-10T04:33:20.375Z,993.54
2019-02-10T04:34:20.370Z,993.49
2019-02-10T04:35:20.368Z,993.49
2019-02-10T04:36:20.690Z,993.41
2019-02-10T04:37:20.355Z,993.43
2019-02-10T04:38:20.356Z,993.42
2019-02-10T04:40:20.347Z,993.32
2019-02-10T04:41:20.327Z,993.30
2019-02-10T04:42:20.353Z,993.24
2019-02-10T04:43:20.543Z,993.20
2019-02-10T04:44:20.550Z,993.19
2019-02-10T04:45:20.536Z,993.07
2019-02-10T04:46:20.339Z,993.04
2019-02-10T04:47:20.334Z,993.01
2019-02-10T04:48:20.516Z,992.94
2019-02-10T04:50:20.717Z,992.86
2019-02-10T04:51:20.503Z,992.80
2019-02-10T04:52:20.290Z,992.67
2019-02-10T04:53:20.304Z,992.64
2019-02-10T04:54:20.494Z,992.60
2019-02-10T04:55:20.306Z,992.59
2019-02-10T04:56:20.296Z,992.49
2019-02-10T04:57:20.508Z,992.47
2019-02-10T04:58:20.289Z,992.42
2019-02-10T04:59:20.263Z,992.47
2019-02-10T05:00:20.664Z,992.35
2019-02-10T05:02:20.661Z,992.26
2019-02-10T05:03:21.050Z,992.22
2019-02-10T05:04:20.251Z,992.16
2019-02-10T05:05:20.285Z,992.16
2019-02-10T05:06:20.235Z,992.14
2019-02-10T05:07:20.425Z,992.05
2019-02-10T05:08:20.229Z,992.08
2019-02-10T05:09:20.229Z,992.03
2019-02-10T05:10:21.770Z,991.90
2019-02-10T05:12:20.231Z,991.89
2019-02-10T05:14:20.404Z,991.83
2019-02-10T05:15:20.210Z,991.74
2019-02-10T05:16:20.382Z,991.76
2019-02-10T05:17:20.626Z,991.75
2019-02-10T05:18:20.593Z,991.62
2019-02-10T05:20:20.178Z,991.65
2019-02-10T05:21:20.376Z,991.53
2019-02-10T05:22:20.150Z,991.53
2019-02-10T05:23:21.277Z,991.50
2019-02-10T05:24:20.159Z,991.41
2019-02-10T05:25:20.155Z,991.44
2019-02-10T05:26:20.157Z,991.38
2019-02-10T05:27:20.559Z,991.32
2019-02-10T05:30:20.368Z,991.19
2019-02-10T05:31:20.145Z,991.15
2019-02-10T05:32:20.548Z,991.11
2019-02-10T05:33:20.139Z,990.99
2019-02-10T05:34:20.337Z,991.02
2019-02-10T05:36:20.127Z,991.00
2019-02-10T05:37:20.099Z,990.88
2019-02-10T05:39:20.081Z,990.91
2019-02-10T05:40:20.283Z,990.89
2019-02-10T05:41:20.287Z,990.78
2019-02-10T05:42:20.291Z,990.84
2019-02-10T05:43:20.092Z,990.81
2019-02-10T05:45:20.058Z,990.76
2019-02-10T05:46:20.059Z,990.66
2019-02-10T05:47:20.078Z,990.68
2019-02-10T05:48:20.066Z,990.58
2019-02-10T05:49:20.052Z,990.58
2019-02-10T05:50:20.030Z,990.58
2019-02-10T05:51:20.057Z,990.54
2019-02-10T05:52:20.044Z,990.50
2019-02-10T05:54:20.033Z,990.45
2019-02-10T05:55:20.029Z,990.40
2019-02-10T05:56:21.446Z,990.38
2019-02-10T05:57:20.211Z,990.37
2019-02-10T05:58:20.218Z,990.35
2019-02-10T05:59:20.022Z,990.35
2019-02-10T06:00:21.431Z,990.20
2019-02-10T06:01:19.998Z,990.31
2019-02-10T06:02:20.194Z,990.30
2019-02-10T06:03:20.301Z,990.30
2019-02-10T06:04:19.997Z,990.26
2019-02-10T06:07:21.396Z,990.15
2019-02-10T06:08:19.962Z,990.15
2019-02-10T06:09:20.174Z,990.11
2019-02-10T06:10:20.155Z,990.09
2019-02-10T06:11:19.994Z,990.10
2019-02-10T06:12:20.661Z,990.06
2019-02-10T06:13:20.154Z,990.04
2019-02-10T06:14:20.250Z,990.00
2019-02-10T06:15:19.938Z,989.97
2019-02-10T06:17:20.355Z,989.88
2019-02-10T06:18:19.909Z,989.88
2019-02-10T06:19:19.942Z,989.90
2019-02-10T06:20:19.920Z,989.85
2019-02-10T06:21:19.926Z,989.82
2019-02-10T06:22:20.221Z,989.77
2019-02-10T06:23:21.018Z,989.74
2019-02-10T06:24:19.913Z,989.75
2019-02-10T06:25:19.878Z,989.73
2019-02-10T06:26:20.087Z,989.64
2019-02-10T06:27:20.280Z,989.68
2019-02-10T06:28:20.079Z,989.63
2019-02-10T06:29:19.903Z,989.54
2019-02-10T06:30:20.364Z,989.54
2019-02-10T06:31:20.498Z,989.52
2019-02-10T06:32:19.861Z,989.48
2019-02-10T06:33:19.864Z,989.39
2019-02-10T06:34:20.052Z,989.41
2019-02-10T06:35:19.864Z,989.43
2019-02-10T06:36:19.856Z,989.35
2019-02-10T06:37:20.053Z,989.36
2019-02-10T06:38:22.603Z,989.35
2019-02-10T06:39:19.855Z,989.28
2019-02-10T06:40:20.046Z,989.42
2019-02-10T06:42:20.038Z,989.31
2019-02-10T06:43:19.825Z,989.27
2019-02-10T06:44:20.031Z,989.28
2019-02-10T06:46:20.032Z,989.18
2019-02-10T06:47:19.826Z,989.14
2019-02-10T06:48:19.808Z,989.12
2019-02-10T06:49:19.808Z,989.09
2019-02-10T06:50:19.790Z,989.08
2019-02-10T06:51:19.802Z,989.01
2019-02-10T06:52:19.764Z,988.96
2019-02-10T06:53:19.978Z,988.98
2019-02-10T06:54:19.995Z,988.94
2019-02-10T06:55:19.976Z,988.94
2019-02-10T06:56:19.746Z,988.81
2019-02-10T06:57:19.779Z,988.80
2019-02-10T06:58:19.970Z,988.78
2019-02-10T06:59:19.765Z,988.77
2019-02-10T07:01:19.764Z,988.68
2019-02-10T07:02:19.935Z,988.64
2019-02-10T07:03:19.725Z,988.59
2019-02-10T07:05:19.719Z,988.56
2019-02-10T07:06:19.704Z,988.50
2019-02-10T07:08:19.717Z,988.43
2019-02-10T07:09:19.707Z,988.38
2019-02-10T07:11:20.069Z,988.36
2019-02-10T07:12:19.711Z,988.32
2019-02-10T07:13:19.913Z,988.37
2019-02-10T07:14:20.189Z,988.21
2019-02-10T07:15:19.695Z,988.26
2019-02-10T07:16:19.661Z,988.20
2019-02-10T07:17:19.885Z,988.20
2019-02-10T07:18:19.991Z,988.20
2019-02-10T07:19:19.886Z,988.17
2019-02-10T07:20:20.062Z,988.10
2019-02-10T07:21:19.656Z,988.15
2019-02-10T07:22:19.634Z,988.14
2019-02-10T07:23:19.670Z,988.11
2019-02-10T07:24:19.640Z,988.11
2019-02-10T07:25:19.650Z,988.12
2019-02-10T07:26:19.853Z,988.05
2019-02-10T07:27:19.843Z,988.03
2019-02-10T07:28:19.631Z,988.00
2019-02-10T07:30:19.839Z,987.95
2019-02-10T07:31:19.630Z,987.90
2019-02-10T07:33:19.610Z,987.95
2019-02-10T07:34:19.611Z,987.92
2019-02-10T07:35:19.580Z,987.92
2019-02-10T07:36:19.605Z,987.91
2019-02-10T07:37:19.795Z,987.90
2019-02-10T07:38:19.591Z,987.92
2019-02-10T07:39:19.592Z,987.88
2019-02-10T07:40:20.183Z,987.86
2019-02-10T07:41:19.974Z,987.83
2019-02-10T07:42:19.559Z,987.79
2019-02-10T07:43:19.779Z,987.78
2019-02-10T07:44:19.576Z,987.86
2019-02-10T07:45:19.564Z,987.85
2019-02-10T07:46:19.581Z,987.72
2019-02-10T07:47:19.528Z,987.72
2019-02-10T07:49:19.557Z,987.77
2019-02-10T07:50:19.557Z,987.73
2019-02-10T07:52:19.747Z,987.57
2019-02-10T07:53:19.719Z,987.62
2019-02-10T07:54:19.741Z,987.69
2019-02-10T07:56:20.259Z,987.57
2019-02-10T07:57:19.534Z,987.58
2019-02-10T07:58:19.734Z,987.59
2019-02-10T08:00:19.808Z,987.59
2019-02-10T08:01:19.515Z,987.49
2019-02-10T08:02:19.518Z,987.57
2019-02-10T08:03:19.688Z,987.54
2019-02-10T08:04:19.477Z,987.55
2019-02-10T08:05:19.483Z,987.51
2019-02-10T08:06:19.465Z,987.54
2019-02-10T08:07:19.493Z,987.54
2019-02-10T08:09:19.707Z,987.61
2019-02-10T08:10:19.561Z,987.53
2019-02-10T08:11:19.518Z,987.61
2019-02-10T08:12:19.445Z,987.60
2019-02-10T08:13:19.659Z,987.53
2019-02-10T08:14:19.453Z,987.53
2019-02-10T08:15:19.473Z,987.44
2019-02-10T08:16:19.450Z,987.47
2019-02-10T08:17:19.752Z,987.47
2019-02-10T08:18:19.643Z,987.51
2019-02-10T08:19:19.646Z,987.46
2019-02-10T08:20:19.435Z,987.45
2019-02-10T08:21:19.423Z,987.46
2019-02-10T08:22:20.047Z,987.46
2019-02-10T08:23:19.670Z,987.36
2019-02-10T08:24:19.623Z,987.42
2019-02-10T08:26:19.410Z,987.44
2019-02-10T08:28:19.401Z,987.50
2019-02-10T08:29:19.397Z,987.39
2019-02-10T08:30:19.595Z,987.41
2019-02-10T08:31:19.381Z,987.40
2019-02-10T08:32:19.385Z,987.33
2019-02-10T08:33:20.100Z,987.26
2019-02-10T08:34:19.386Z,987.21
2019-02-10T08:35:19.578Z,987.14
2019-02-10T08:37:19.367Z,987.13
2019-02-10T08:38:19.371Z,987.05
2019-02-10T08:39:19.371Z,987.12
2019-02-10T08:41:19.361Z,987.10
2019-02-10T08:42:19.363Z,987.07
2019-02-10T08:43:19.363Z,987.06
2019-02-10T08:44:19.344Z,987.06
2019-02-10T08:46:19.647Z,987.07
2019-02-10T08:47:19.332Z,987.06
2019-02-10T08:48:19.351Z,986.93
2019-02-10T08:49:19.326Z,987.04
2019-02-10T08:50:19.370Z,986.96
2019-02-10T08:51:19.313Z,987.02
2019-02-10T08:52:19.845Z,987.02
2019-02-10T08:53:19.524Z,986.99
2019-02-10T08:54:19.503Z,986.96
2019-02-10T08:55:19.312Z,986.93
2019-02-10T08:56:19.315Z,986.91
2019-02-10T08:57:19.730Z,986.85
2019-02-10T08:58:19.504Z,986.81
2019-02-10T09:01:19.533Z,986.72
2019-02-10T09:02:19.494Z,986.71
2019-02-10T09:03:19.957Z,986.70
2019-02-10T09:04:19.261Z,986.70
2019-02-10T09:05:19.285Z,986.55
2019-02-10T09:06:19.286Z,986.56
2019-02-10T09:07:19.265Z,986.57
2019-02-10T09:08:19.269Z,986.51
2019-02-10T09:10:20.010Z,986.45
2019-02-10T09:11:20.165Z,986.46
2019-02-10T09:12:19.667Z,986.51
2019-02-10T09:15:19.468Z,986.48
2019-02-10T09:16:19.236Z,986.53
2019-02-10T09:17:19.249Z,986.54
2019-02-10T09:18:19.864Z,986.50
2019-02-10T09:20:19.233Z,986.56
2019-02-10T09:21:19.646Z,986.61
2019-02-10T09:22:20.338Z,986.65
2019-02-10T09:23:19.425Z,986.61
2019-02-10T09:24:19.216Z,986.62
2019-02-10T09:25:19.211Z,986.62
2019-02-10T09:26:19.614Z,986.58
2019-02-10T09:27:19.408Z,986.59
2019-02-10T09:29:19.200Z,986.59
2019-02-10T09:30:19.417Z,986.58
2019-02-10T09:31:19.208Z,986.58
2019-02-10T09:32:19.190Z,986.57
2019-02-10T09:33:19.201Z,986.52
2019-02-10T09:34:19.201Z,986.56
2019-02-10T09:35:19.185Z,986.52
2019-02-10T09:36:19.872Z,986.47
2019-02-10T09:37:19.167Z,986.50
2019-02-10T09:38:19.351Z,986.49
2019-02-10T09:39:19.367Z,986.47
2019-02-10T09:40:19.168Z,986.43
2019-02-10T09:41:19.156Z,986.44
2019-02-10T09:42:19.163Z,986.43
2019-02-10T09:43:19.156Z,986.42
2019-02-10T09:44:19.352Z,986.41
2019-02-10T09:45:19.156Z,986.44
2019-02-10T09:47:19.530Z,986.33
2019-02-10T09:48:20.043Z,986.41
2019-02-10T09:50:19.130Z,986.17
2019-02-10T09:51:19.527Z,986.31
2019-02-10T09:52:19.134Z,986.28
2019-02-10T09:53:19.096Z,986.23
2019-02-10T09:54:19.127Z,986.25
2019-02-10T09:55:19.521Z,986.24
2019-02-10T09:57:19.315Z,986.31
2019-02-10T09:58:19.107Z,986.22
2019-02-10T09:59:19.102Z,986.25
2019-02-10T10:00:19.115Z,986.23
2019-02-10T10:01:19.095Z,986.27
2019-02-10T10:02:19.089Z,986.18
2019-02-10T10:03:19.294Z,986.23
2019-02-10T10:04:19.100Z,986.28
2019-02-10T10:05:19.297Z,986.28
2019-02-10T10:06:19.289Z,986.22
2019-02-10T10:07:19.103Z,986.22
2019-02-10T10:08:19.284Z,986.20
2019-02-10T10:09:19.817Z,986.24
2019-02-10T10:10:19.065Z,986.20
2019-02-10T10:11:19.060Z,986.16
2019-02-10T10:13:19.058Z,986.21
2019-02-10T10:14:19.815Z,986.20
2019-02-10T10:15:19.766Z,986.12
2019-02-10T10:16:19.066Z,986.13
2019-02-10T10:17:19.046Z,986.18
2019-02-10T10:18:19.054Z,986.18
2019-02-10T10:19:19.072Z,986.15
2019-02-10T10:20:19.430Z,986.09
2019-02-10T10:22:19.245Z,986.13
2019-02-10T10:24:19.055Z,986.02
2019-02-10T10:26:19.222Z,986.05
2019-02-10T10:27:19.006Z,986.02
2019-02-10T10:29:19.008Z,986.06
2019-02-10T10:30:19.028Z,986.01
2019-02-10T10:32:19.012Z,985.94
2019-02-10T10:33:18.984Z,985.91
2019-02-10T10:35:19.009Z,985.92
2019-02-10T10:36:18.981Z,985.88
2019-02-10T10:37:18.982Z,985.82
2019-02-10T10:38:18.971Z,985.80
2019-02-10T10:39:27.013Z,985.79
2019-02-10T10:40:18.984Z,985.84
2019-02-10T10:41:19.005Z,985.83
2019-02-10T10:42:18.971Z,985.81
2019-02-10T10:43:18.986Z,985.84
2019-02-10T10:45:18.941Z,985.89
2019-02-10T10:48:19.146Z,985.82
2019-02-10T10:49:19.156Z,985.83
2019-02-10T10:50:19.173Z,985.91
2019-02-10T10:51:18.938Z,986.07
2019-02-10T10:52:19.133Z,986.02
2019-02-10T10:53:18.932Z,986.06
2019-02-10T10:54:19.132Z,986.04
2019-02-10T10:55:19.138Z,985.97
2019-02-10T10:56:19.441Z,985.97
2019-02-10T10:57:18.932Z,985.95
2019-02-10T10:58:18.927Z,985.90
2019-02-10T10:59:18.922Z,985.92
2019-02-10T11:00:18.908Z,985.95
2019-02-10T11:01:25.206Z,985.98
2019-02-10T11:02:18.921Z,985.87
2019-02-10T11:03:19.306Z,985.95
2019-02-10T11:04:18.905Z,985.91
2019-02-10T11:05:19.097Z,985.84
2019-02-10T11:06:18.883Z,985.89
2019-02-10T11:07:19.105Z,985.89
2019-02-10T11:10:18.866Z,985.89
2019-02-10T11:12:18.891Z,985.88
2019-02-10T11:13:18.862Z,985.91
2019-02-10T11:14:19.065Z,985.88
2019-02-10T11:15:18.869Z,985.91
2019-02-10T11:16:18.883Z,985.86
2019-02-10T11:17:18.870Z,985.84
2019-02-10T11:18:19.080Z,985.84
2019-02-10T11:19:18.879Z,985.82
2019-02-10T11:20:18.858Z,985.80
2019-02-10T11:21:18.858Z,985.77
2019-02-10T11:23:18.881Z,985.73
2019-02-10T11:24:18.833Z,985.69
2019-02-10T11:26:18.872Z,985.66
2019-02-10T11:27:18.836Z,985.69
2019-02-10T11:28:18.859Z,985.77
2019-02-10T11:29:19.043Z,985.74
2019-02-10T11:30:20.255Z,985.78
2019-02-10T11:31:19.123Z,985.86
2019-02-10T11:32:19.243Z,985.77
2019-02-10T11:33:19.206Z,985.83
2019-02-10T11:34:18.811Z,985.81
2019-02-10T11:35:18.820Z,985.81
2019-02-10T11:37:26.555Z,985.73
2019-02-10T11:38:18.786Z,985.72
2019-02-10T11:39:19.004Z,985.72
2019-02-10T11:40:18.792Z,985.75
2019-02-10T11:41:18.800Z,985.70
2019-02-10T11:42:19.189Z,985.77
2019-02-10T11:43:18.778Z,985.73
2019-02-10T11:45:18.777Z,985.79
2019-02-10T11:46:18.770Z,985.69
2019-02-10T11:47:18.778Z,985.76
2019-02-10T11:48:18.770Z,985.76
2019-02-10T11:49:18.766Z,985.78
2019-02-10T11:50:18.762Z,985.76
2019-02-10T11:51:18.770Z,985.68
2019-02-10T11:52:18.780Z,985.67
2019-02-10T11:53:18.944Z,985.72
2019-02-10T11:54:18.751Z,985.77
2019-02-10T11:55:18.952Z,985.76
2019-02-10T11:56:18.944Z,985.75
2019-02-10T11:57:18.741Z,985.74
2019-02-10T11:58:18.735Z,985.72
2019-02-10T11:59:18.715Z,985.70
2019-02-10T12:01:18.941Z,985.75
2019-02-10T12:02:18.731Z,985.68
2019-02-10T12:03:18.719Z,985.75
2019-02-10T12:04:18.712Z,985.71
2019-02-10T12:05:18.708Z,985.70
2019-02-10T12:06:18.723Z,985.74
2019-02-10T12:07:18.914Z,985.72
2019-02-10T12:08:18.943Z,985.77
2019-02-10T12:09:18.706Z,985.76
2019-02-10T12:10:18.729Z,985.73
2019-02-10T12:11:18.683Z,985.70
2019-02-10T12:12:18.906Z,985.77
2019-02-10T12:13:18.706Z,985.74
2019-02-10T12:14:19.199Z,985.79
2019-02-10T12:15:18.684Z,985.80
2019-02-10T12:16:18.690Z,985.78
2019-02-10T12:17:18.696Z,985.88
2019-02-10T12:18:18.698Z,985.79
2019-02-10T12:19:18.676Z,985.81
2019-02-10T12:20:18.695Z,985.83
2019-02-10T12:21:18.695Z,985.82
2019-02-10T12:22:18.672Z,985.81
2019-02-10T12:23:18.679Z,985.85
2019-02-10T12:25:18.664Z,985.80
2019-02-10T12:27:18.640Z,985.78
2019-02-10T12:28:18.653Z,985.82
2019-02-10T12:29:18.946Z,985.81
2019-02-10T12:30:18.841Z,985.83
2019-02-10T12:32:18.838Z,985.83
2019-02-10T12:33:18.644Z,985.91
2019-02-10T12:34:18.824Z,985.91
2019-02-10T12:35:18.642Z,985.94
2019-02-10T12:36:19.349Z,985.86
2019-02-10T12:37:18.611Z,985.90
2019-02-10T12:38:18.630Z,985.90
2019-02-10T12:39:18.838Z,985.91
2019-02-10T12:40:18.629Z,985.91
2019-02-10T12:43:18.589Z,985.87
2019-02-10T12:44:18.613Z,985.83
2019-02-10T12:45:19.300Z,985.87
2019-02-10T12:46:18.587Z,985.86
2019-02-10T12:47:18.786Z,985.87
2019-02-10T12:48:18.593Z,985.98
2019-02-10T12:49:18.589Z,985.89
2019-02-10T12:50:18.772Z,985.95
2019-02-10T12:51:18.780Z,985.90
2019-02-10T12:53:18.775Z,985.92
2019-02-10T12:54:18.557Z,985.88
2019-02-10T12:55:18.577Z,985.95
2019-02-10T12:56:18.763Z,985.93
2019-02-10T12:58:18.565Z,985.94
2019-02-10T12:59:18.557Z,985.93
2019-02-10T13:00:18.740Z,986.02
2019-02-10T13:01:18.746Z,986.00
2019-02-10T13:02:19.054Z,986.02
2019-02-10T13:03:18.738Z,986.03
2019-02-10T13:04:18.524Z,986.07
2019-02-10T13:05:18.557Z,986.08
2019-02-10T13:06:18.535Z,986.02
2019-02-10T13:08:18.516Z,986.09
2019-02-10T13:09:18.518Z,986.10
2019-02-10T13:10:18.561Z,986.09
2019-02-10T13:12:18.707Z,986.09
2019-02-10T13:13:19.514Z,986.11
2019-02-10T13:14:18.505Z,986.14
2019-02-10T13:15:18.499Z,986.11
2019-02-10T13:16:18.489Z,986.16
2019-02-10T13:17:18.472Z,986.17
2019-02-10T13:19:18.689Z,986.14
2019-02-10T13:20:18.490Z,986.16
2019-02-10T13:21:18.494Z,986.13
2019-02-10T13:22:18.662Z,986.05
2019-02-10T13:24:18.478Z,986.02
2019-02-10T13:25:18.657Z,985.90
2019-02-10T13:26:18.680Z,985.89
2019-02-10T13:27:18.454Z,985.94
2019-02-10T13:29:18.682Z,985.93
2019-02-10T13:30:18.464Z,985.90
2019-02-10T13:31:18.457Z,985.91
2019-02-10T13:32:18.832Z,985.90
2019-02-10T13:33:18.635Z,985.96
2019-02-10T13:34:18.927Z,985.91
2019-02-10T13:35:18.406Z,985.93
2019-02-10T13:36:18.615Z,985.85
2019-02-10T13:37:18.612Z,985.90
2019-02-10T13:38:18.430Z,985.92
2019-02-10T13:39:18.613Z,985.91
2019-02-10T13:42:18.816Z,985.97
2019-02-10T13:43:18.416Z,986.00
2019-02-10T13:44:18.389Z,985.93
2019-02-10T13:45:18.609Z,985.95
2019-02-10T13:46:18.372Z,985.94
2019-02-10T13:47:18.385Z,985.94
2019-02-10T13:48:18.590Z,985.93
2019-02-10T13:49:18.581Z,985.93
2019-02-10T13:50:18.362Z,985.95
2019-02-10T13:51:18.781Z,985.96
2019-02-10T13:52:18.581Z,985.88
2019-02-10T13:53:18.362Z,985.87
2019-02-10T13:54:18.565Z,985.88
2019-02-10T13:55:18.362Z,985.94
2019-02-10T13:56:18.562Z,985.99
2019-02-10T13:57:18.360Z,985.96
2019-02-10T13:58:18.352Z,985.96
2019-02-10T13:59:18.665Z,986.02
2019-02-10T14:01:18.342Z,986.06
2019-02-10T14:02:18.354Z,986.00
2019-02-10T14:03:18.536Z,986.01
2019-02-10T14:04:18.349Z,986.03
2019-02-10T14:05:18.321Z,986.05
2019-02-10T14:06:18.738Z,986.07
2019-02-10T14:07:18.519Z,985.99
2019-02-10T14:08:18.520Z,986.00
2019-02-10T14:09:18.308Z,985.98
2019-02-10T14:12:18.918Z,986.00
2019-02-10T14:13:18.293Z,985.95
2019-02-10T14:15:18.300Z,985.97
2019-02-10T14:16:18.293Z,985.99
2019-02-10T14:18:18.317Z,985.98
2019-02-10T14:19:18.281Z,986.01
2019-02-10T14:20:18.264Z,985.97
2019-02-10T14:21:18.286Z,986.03
2019-02-10T14:22:18.290Z,986.01
2019-02-10T14:23:18.274Z,986.06
2019-02-10T14:24:18.591Z,986.10
2019-02-10T14:25:18.513Z,986.06
2019-02-10T14:26:18.272Z,986.08
2019-02-10T14:27:18.247Z,986.06
2019-02-10T14:28:18.261Z,986.05
2019-02-10T14:29:18.255Z,986.10
2019-02-10T14:30:18.560Z,986.08
2019-02-10T14:31:18.241Z,986.06
2019-02-10T14:32:18.231Z,986.00
2019-02-10T14:33:18.237Z,985.97